Etusivu
METAR-TAF:

METAR-TAF

Lentoasemat :

Merrill Municipal Airport

Merrill, Wisconsin, Yhdysvallat

Leveyspiiri: 45-11N, Pituuspiiri: 089-42W, korkeus merenpinnasta: 401 m

Tämänhetkinen sää

Tämä raportti tehtiin 20 minuuttia sitten, kello 15.35 UTC
Tuuli 11 kn pohjoisen/luoteesta puuskistuen 16 kn:hen
Lämpötila -11°C
Kosteus 47%
Ilmanpaine 1024 hPa
Näkyvyys: 16.1 km
selkeää

METAR: KRRL 011535Z AUTO 34011G16KT 10SM CLR M11/M20 A3023 RMK AO2 T11111197 TSNO

Aika: 09:55 (15:55 UTC)


TAF: puuttuu

Säähavainnot ja -ennusteet yli 4000 lentoasemalta (METAR- ja TAF-raportit).

Käytössä olevat sääasemat on merkitty karttaan keltaisilla ja punaisilla pisteillä.

Aseta hiiri pisteen päälle nähdäksesi sääaseman nimen.

Klikkaa sitten nähdäksesi säähavainnot ja -ennusteet.

Kartan vaihtaminen: klikkaa mustalla rastilla varustettuja vihreitä pisteitä, niin voit zoomata sisään; viivalla varustettua vihreää pistettä, niin voit zoomata ulos tai vihreitä nuolia, niin pääset viereisille kartoille.


METAR-TAF: